sensor_id;sensor_type;location;lat;lon;timestamp;P1;durP1;ratioP1;P2;durP2;ratioP2
12625;SDS011;6378;42.684;23.372;2023-07-29T00:00:33;5.22;;;4.60;;
12625;SDS011;6378;42.684;23.372;2023-07-29T00:02:58;6.15;;;4.80;;
12625;SDS011;6378;42.684;23.372;2023-07-29T00:05:23;6.63;;;4.90;;
12625;SDS011;6378;42.684;23.372;2023-07-29T00:07:49;5.30;;;4.80;;
12625;SDS011;6378;42.684;23.372;2023-07-29T00:10:14;5.22;;;4.72;;
12625;SDS011;6378;42.684;23.372;2023-07-29T00:12:41;5.65;;;4.72;;
12625;SDS011;6378;42.684;23.372;2023-07-29T00:15:07;6.80;;;4.22;;
12625;SDS011;6378;42.684;23.372;2023-07-29T00:17:33;6.57;;;5.10;;
12625;SDS011;6378;42.684;23.372;2023-07-29T00:19:58;5.22;;;4.75;;
12625;SDS011;6378;42.684;23.372;2023-07-29T00:22:23;7.28;;;5.10;;
12625;SDS011;6378;42.684;23.372;2023-07-29T00:24:52;4.88;;;4.47;;
12625;SDS011;6378;42.684;23.372;2023-07-29T00:27:22;5.93;;;5.03;;
12625;SDS011;6378;42.684;23.372;2023-07-29T00:29:48;5.75;;;4.82;;
12625;SDS011;6378;42.684;23.372;2023-07-29T00:32:13;5.53;;;4.63;;
12625;SDS011;6378;42.684;23.372;2023-07-29T00:34:38;5.32;;;4.38;;
12625;SDS011;6378;42.684;23.372;2023-07-29T00:37:04;4.95;;;4.47;;
12625;SDS011;6378;42.684;23.372;2023-07-29T00:39:31;7.03;;;4.70;;
12625;SDS011;6378;42.684;23.372;2023-07-29T00:41:59;5.70;;;4.80;;
12625;SDS011;6378;42.684;23.372;2023-07-29T00:44:25;5.40;;;4.80;;
12625;SDS011;6378;42.684;23.372;2023-07-29T00:46:51;4.97;;;4.47;;
12625;SDS011;6378;42.684;23.372;2023-07-29T00:49:18;5.35;;;4.85;;
12625;SDS011;6378;42.684;23.372;2023-07-29T00:51:45;5.32;;;4.82;;
12625;SDS011;6378;42.684;23.372;2023-07-29T00:54:11;5.55;;;4.60;;
12625;SDS011;6378;42.684;23.372;2023-07-29T00:56:37;5.30;;;4.80;;
12625;SDS011;6378;42.684;23.372;2023-07-29T00:59:03;7.43;;;4.88;;
12625;SDS011;6378;42.684;23.372;2023-07-29T01:01:29;7.22;;;5.53;;
12625;SDS011;6378;42.684;23.372;2023-07-29T01:03:55;6.55;;;5.05;;
12625;SDS011;6378;42.684;23.372;2023-07-29T01:11:48;5.07;;;4.57;;
12625;SDS011;6378;42.684;23.372;2023-07-29T01:16:57;5.47;;;4.95;;
12625;SDS011;6378;42.684;23.372;2023-07-29T01:22:26;5.07;;;4.47;;
12625;SDS011;6378;42.684;23.372;2023-07-29T01:24:52;6.43;;;4.90;;
12625;SDS011;6378;42.684;23.372;2023-07-29T01:27:18;4.53;;;4.13;;
12625;SDS011;6378;42.684;23.372;2023-07-29T01:29:43;4.93;;;4.10;;
12625;SDS011;6378;42.684;23.372;2023-07-29T01:32:10;4.68;;;4.28;;
12625;SDS011;6378;42.684;23.372;2023-07-29T01:34:59;5.85;;;4.72;;
12625;SDS011;6378;42.684;23.372;2023-07-29T01:37:30;5.20;;;4.78;;
12625;SDS011;6378;42.684;23.372;2023-07-29T01:39:58;6.53;;;4.78;;
12625;SDS011;6378;42.684;23.372;2023-07-29T01:42:25;5.40;;;4.68;;
12625;SDS011;6378;42.684;23.372;2023-07-29T01:44:51;5.70;;;5.13;;
12625;SDS011;6378;42.684;23.372;2023-07-29T01:47:17;7.55;;;6.18;;
12625;SDS011;6378;42.684;23.372;2023-07-29T01:49:43;7.68;;;6.10;;
12625;SDS011;6378;42.684;23.372;2023-07-29T01:52:08;6.22;;;5.35;;
12625;SDS011;6378;42.684;23.372;2023-07-29T01:54:33;6.75;;;5.40;;
12625;SDS011;6378;42.684;23.372;2023-07-29T01:56:59;6.43;;;5.78;;
12625;SDS011;6378;42.684;23.372;2023-07-29T01:59:24;6.22;;;5.57;;
12625;SDS011;6378;42.684;23.372;2023-07-29T02:01:50;6.55;;;5.68;;
12625;SDS011;6378;42.684;23.372;2023-07-29T02:04:15;6.40;;;5.80;;
12625;SDS011;6378;42.684;23.372;2023-07-29T02:06:40;6.10;;;5.50;;
12625;SDS011;6378;42.684;23.372;2023-07-29T02:09:06;7.50;;;5.63;;
12625;SDS011;6378;42.684;23.372;2023-07-29T02:11:31;5.82;;;5.30;;
12625;SDS011;6378;42.684;23.372;2023-07-29T02:13:57;7.18;;;5.93;;
12625;SDS011;6378;42.684;23.372;2023-07-29T02:16:23;8.55;;;6.10;;
12625;SDS011;6378;42.684;23.372;2023-07-29T02:18:48;7.93;;;5.78;;
12625;SDS011;6378;42.684;23.372;2023-07-29T02:21:15;6.93;;;5.85;;
12625;SDS011;6378;42.684;23.372;2023-07-29T02:23:40;8.57;;;6.10;;
12625;SDS011;6378;42.684;23.372;2023-07-29T02:26:06;6.40;;;5.72;;
12625;SDS011;6378;42.684;23.372;2023-07-29T02:28:31;6.75;;;6.03;;
12625;SDS011;6378;42.684;23.372;2023-07-29T02:31:16;6.70;;;6.10;;
12625;SDS011;6378;42.684;23.372;2023-07-29T02:33:44;6.60;;;5.40;;
12625;SDS011;6378;42.684;23.372;2023-07-29T02:36:11;8.45;;;5.95;;
12625;SDS011;6378;42.684;23.372;2023-07-29T02:38:37;6.95;;;6.35;;
12625;SDS011;6378;42.684;23.372;2023-07-29T02:41:02;6.78;;;5.78;;
12625;SDS011;6378;42.684;23.372;2023-07-29T02:43:28;7.10;;;6.05;;
12625;SDS011;6378;42.684;23.372;2023-07-29T02:45:53;7.47;;;5.93;;
12625;SDS011;6378;42.684;23.372;2023-07-29T02:48:18;7.15;;;6.05;;
12625;SDS011;6378;42.684;23.372;2023-07-29T02:50:44;10.00;;;6.35;;
12625;SDS011;6378;42.684;23.372;2023-07-29T02:53:09;6.30;;;5.60;;
12625;SDS011;6378;42.684;23.372;2023-07-29T02:55:35;6.60;;;5.82;;
12625;SDS011;6378;42.684;23.372;2023-07-29T02:58:00;6.43;;;5.57;;
12625;SDS011;6378;42.684;23.372;2023-07-29T03:00:25;7.00;;;6.00;;
12625;SDS011;6378;42.684;23.372;2023-07-29T03:02:51;6.05;;;5.45;;
12625;SDS011;6378;42.684;23.372;2023-07-29T03:05:16;6.20;;;5.60;;
12625;SDS011;6378;42.684;23.372;2023-07-29T03:07:42;5.95;;;5.35;;
12625;SDS011;6378;42.684;23.372;2023-07-29T03:10:07;9.02;;;5.90;;
12625;SDS011;6378;42.684;23.372;2023-07-29T03:12:32;7.55;;;5.55;;
12625;SDS011;6378;42.684;23.372;2023-07-29T03:14:58;8.10;;;6.20;;
12625;SDS011;6378;42.684;23.372;2023-07-29T03:17:25;6.65;;;5.38;;
12625;SDS011;6378;42.684;23.372;2023-07-29T03:19:51;6.20;;;5.60;;
12625;SDS011;6378;42.684;23.372;2023-07-29T03:22:17;6.07;;;5.35;;
12625;SDS011;6378;42.684;23.372;2023-07-29T03:24:42;5.53;;;5.00;;
12625;SDS011;6378;42.684;23.372;2023-07-29T03:27:07;6.20;;;5.63;;
12625;SDS011;6378;42.684;23.372;2023-07-29T03:29:35;5.85;;;5.35;;
12625;SDS011;6378;42.684;23.372;2023-07-29T03:32:00;6.07;;;5.47;;
12625;SDS011;6378;42.684;23.372;2023-07-29T03:34:25;8.13;;;5.20;;
12625;SDS011;6378;42.684;23.372;2023-07-29T03:36:51;6.18;;;4.53;;
12625;SDS011;6378;42.684;23.372;2023-07-29T03:39:16;5.68;;;5.18;;
12625;SDS011;6378;42.684;23.372;2023-07-29T03:41:42;5.85;;;5.25;;
12625;SDS011;6378;42.684;23.372;2023-07-29T03:44:07;6.53;;;5.05;;
12625;SDS011;6378;42.684;23.372;2023-07-29T03:46:33;5.43;;;4.75;;
12625;SDS011;6378;42.684;23.372;2023-07-29T03:48:58;5.00;;;4.60;;
12625;SDS011;6378;42.684;23.372;2023-07-29T03:51:23;5.07;;;4.50;;
12625;SDS011;6378;42.684;23.372;2023-07-29T03:53:49;5.57;;;4.90;;
12625;SDS011;6378;42.684;23.372;2023-07-29T03:56:15;5.75;;;4.80;;
12625;SDS011;6378;42.684;23.372;2023-07-29T03:58:40;5.40;;;4.88;;
12625;SDS011;6378;42.684;23.372;2023-07-29T04:01:06;5.55;;;5.00;;
12625;SDS011;6378;42.684;23.372;2023-07-29T04:03:32;5.47;;;4.95;;
12625;SDS011;6378;42.684;23.372;2023-07-29T04:06:01;5.60;;;5.03;;
12625;SDS011;6378;42.684;23.372;2023-07-29T04:08:26;5.30;;;4.80;;
12625;SDS011;6378;42.684;23.372;2023-07-29T04:10:52;5.20;;;4.70;;
12625;SDS011;6378;42.684;23.372;2023-07-29T04:13:17;6.03;;;4.82;;
12625;SDS011;6378;42.684;23.372;2023-07-29T04:15:43;5.45;;;4.95;;
12625;SDS011;6378;42.684;23.372;2023-07-29T04:18:08;7.18;;;5.00;;
12625;SDS011;6378;42.684;23.372;2023-07-29T04:20:33;6.07;;;4.60;;
12625;SDS011;6378;42.684;23.372;2023-07-29T04:22:59;6.07;;;5.45;;
12625;SDS011;6378;42.684;23.372;2023-07-29T04:25:24;5.88;;;5.10;;
12625;SDS011;6378;42.684;23.372;2023-07-29T04:27:50;7.83;;;5.70;;
12625;SDS011;6378;42.684;23.372;2023-07-29T04:30:15;6.25;;;5.07;;
12625;SDS011;6378;42.684;23.372;2023-07-29T04:32:41;5.93;;;5.32;;
12625;SDS011;6378;42.684;23.372;2023-07-29T04:35:07;6.93;;;5.38;;
12625;SDS011;6378;42.684;23.372;2023-07-29T04:37:33;5.30;;;4.80;;
12625;SDS011;6378;42.684;23.372;2023-07-29T04:39:59;5.68;;;5.03;;
12625;SDS011;6378;42.684;23.372;2023-07-29T04:42:24;6.45;;;5.57;;
12625;SDS011;6378;42.684;23.372;2023-07-29T04:44:50;7.72;;;6.90;;
12625;SDS011;6378;42.684;23.372;2023-07-29T04:47:15;7.30;;;5.82;;
12625;SDS011;6378;42.684;23.372;2023-07-29T04:49:40;8.23;;;7.38;;
12625;SDS011;6378;42.684;23.372;2023-07-29T04:52:06;5.97;;;5.38;;
12625;SDS011;6378;42.684;23.372;2023-07-29T04:54:31;5.88;;;5.28;;
12625;SDS011;6378;42.684;23.372;2023-07-29T04:56:57;6.43;;;5.43;;
12625;SDS011;6378;42.684;23.372;2023-07-29T04:59:22;6.10;;;5.50;;
12625;SDS011;6378;42.684;23.372;2023-07-29T05:01:48;7.72;;;5.35;;
12625;SDS011;6378;42.684;23.372;2023-07-29T05:04:14;6.07;;;5.47;;
12625;SDS011;6378;42.684;23.372;2023-07-29T05:06:39;6.22;;;5.63;;
12625;SDS011;6378;42.684;23.372;2023-07-29T05:09:17;5.95;;;5.25;;
12625;SDS011;6378;42.684;23.372;2023-07-29T05:11:44;7.38;;;5.63;;
12625;SDS011;6378;42.684;23.372;2023-07-29T05:14:13;6.82;;;6.03;;
12625;SDS011;6378;42.684;23.372;2023-07-29T05:16:39;9.70;;;7.90;;
12625;SDS011;6378;42.684;23.372;2023-07-29T05:19:05;6.75;;;5.55;;
12625;SDS011;6378;42.684;23.372;2023-07-29T05:21:30;6.90;;;5.82;;
12625;SDS011;6378;42.684;23.372;2023-07-29T05:23:56;10.20;;;8.38;;
12625;SDS011;6378;42.684;23.372;2023-07-29T05:26:21;8.02;;;7.18;;
12625;SDS011;6378;42.684;23.372;2023-07-29T05:28:47;6.40;;;5.63;;
12625;SDS011;6378;42.684;23.372;2023-07-29T05:31:13;7.15;;;6.45;;
12625;SDS011;6378;42.684;23.372;2023-07-29T05:33:38;10.02;;;7.57;;
12625;SDS011;6378;42.684;23.372;2023-07-29T05:36:04;12.07;;;7.85;;
12625;SDS011;6378;42.684;23.372;2023-07-29T05:38:30;7.97;;;6.05;;
12625;SDS011;6378;42.684;23.372;2023-07-29T05:40:55;7.93;;;5.93;;
12625;SDS011;6378;42.684;23.372;2023-07-29T05:43:21;8.48;;;5.97;;
12625;SDS011;6378;42.684;23.372;2023-07-29T05:45:46;13.77;;;10.40;;
12625;SDS011;6378;42.684;23.372;2023-07-29T05:48:11;7.00;;;5.88;;
12625;SDS011;6378;42.684;23.372;2023-07-29T05:50:37;7.63;;;5.93;;
12625;SDS011;6378;42.684;23.372;2023-07-29T05:53:02;12.48;;;8.80;;
12625;SDS011;6378;42.684;23.372;2023-07-29T05:55:27;6.80;;;5.80;;
12625;SDS011;6378;42.684;23.372;2023-07-29T05:57:53;9.52;;;6.07;;
12625;SDS011;6378;42.684;23.372;2023-07-29T06:00:19;9.02;;;6.82;;
12625;SDS011;6378;42.684;23.372;2023-07-29T06:02:45;7.20;;;6.47;;
12625;SDS011;6378;42.684;23.372;2023-07-29T06:05:10;7.95;;;6.35;;
12625;SDS011;6378;42.684;23.372;2023-07-29T06:07:36;9.32;;;6.13;;
12625;SDS011;6378;42.684;23.372;2023-07-29T06:10:01;8.00;;;6.63;;
12625;SDS011;6378;42.684;23.372;2023-07-29T06:12:27;9.55;;;6.53;;
12625;SDS011;6378;42.684;23.372;2023-07-29T06:14:52;6.60;;;5.93;;
12625;SDS011;6378;42.684;23.372;2023-07-29T06:17:17;8.13;;;5.95;;
12625;SDS011;6378;42.684;23.372;2023-07-29T06:19:43;15.32;;;7.40;;
12625;SDS011;6378;42.684;23.372;2023-07-29T06:22:09;12.05;;;9.52;;
12625;SDS011;6378;42.684;23.372;2023-07-29T06:24:35;12.88;;;7.13;;
12625;SDS011;6378;42.684;23.372;2023-07-29T06:27:00;6.85;;;5.70;;
12625;SDS011;6378;42.684;23.372;2023-07-29T06:29:26;11.77;;;6.50;;
12625;SDS011;6378;42.684;23.372;2023-07-29T06:31:51;10.73;;;6.82;;
12625;SDS011;6378;42.684;23.372;2023-07-29T06:34:17;8.20;;;5.90;;
12625;SDS011;6378;42.684;23.372;2023-07-29T06:36:42;8.82;;;6.70;;
12625;SDS011;6378;42.684;23.372;2023-07-29T06:39:09;12.73;;;6.45;;
12625;SDS011;6378;42.684;23.372;2023-07-29T06:41:34;13.63;;;7.15;;
12625;SDS011;6378;42.684;23.372;2023-07-29T06:44:00;7.93;;;6.47;;
12625;SDS011;6378;42.684;23.372;2023-07-29T06:46:25;11.30;;;6.28;;
12625;SDS011;6378;42.684;23.372;2023-07-29T06:48:51;11.13;;;6.10;;
12625;SDS011;6378;42.684;23.372;2023-07-29T06:51:16;13.32;;;7.28;;
12625;SDS011;6378;42.684;23.372;2023-07-29T06:53:41;8.20;;;6.07;;
12625;SDS011;6378;42.684;23.372;2023-07-29T06:56:07;13.25;;;6.25;;
12625;SDS011;6378;42.684;23.372;2023-07-29T06:58:34;10.48;;;6.22;;
12625;SDS011;6378;42.684;23.372;2023-07-29T07:00:59;8.73;;;5.90;;
12625;SDS011;6378;42.684;23.372;2023-07-29T07:03:25;7.70;;;5.57;;
12625;SDS011;6378;42.684;23.372;2023-07-29T07:05:50;8.05;;;5.63;;
12625;SDS011;6378;42.684;23.372;2023-07-29T07:08:16;8.63;;;5.72;;
12625;SDS011;6378;42.684;23.372;2023-07-29T07:10:41;7.93;;;5.80;;
12625;SDS011;6378;42.684;23.372;2023-07-29T07:13:07;8.63;;;5.60;;
12625;SDS011;6378;42.684;23.372;2023-07-29T07:15:32;10.18;;;5.88;;
12625;SDS011;6378;42.684;23.372;2023-07-29T07:17:58;10.50;;;5.75;;
12625;SDS011;6378;42.684;23.372;2023-07-29T07:20:23;10.18;;;6.07;;
12625;SDS011;6378;42.684;23.372;2023-07-29T07:22:48;8.55;;;5.95;;
12625;SDS011;6378;42.684;23.372;2023-07-29T07:25:14;9.30;;;6.13;;
12625;SDS011;6378;42.684;23.372;2023-07-29T07:27:39;8.02;;;6.38;;
12625;SDS011;6378;42.684;23.372;2023-07-29T07:30:04;9.75;;;7.10;;
12625;SDS011;6378;42.684;23.372;2023-07-29T07:32:30;10.85;;;5.68;;
12625;SDS011;6378;42.684;23.372;2023-07-29T07:34:56;11.27;;;6.70;;
12625;SDS011;6378;42.684;23.372;2023-07-29T07:37:21;9.93;;;6.20;;
12625;SDS011;6378;42.684;23.372;2023-07-29T07:39:47;11.00;;;6.75;;
12625;SDS011;6378;42.684;23.372;2023-07-29T07:42:12;8.18;;;6.20;;
12625;SDS011;6378;42.684;23.372;2023-07-29T07:44:37;6.03;;;5.35;;
12625;SDS011;6378;42.684;23.372;2023-07-29T07:47:03;8.07;;;5.57;;
12625;SDS011;6378;42.684;23.372;2023-07-29T07:49:28;6.53;;;5.30;;
12625;SDS011;6378;42.684;23.372;2023-07-29T07:51:54;6.93;;;5.82;;
12625;SDS011;6378;42.684;23.372;2023-07-29T07:54:19;6.05;;;5.38;;
12625;SDS011;6378;42.684;23.372;2023-07-29T07:56:45;8.40;;;5.63;;
12625;SDS011;6378;42.684;23.372;2023-07-29T07:59:10;11.05;;;5.30;;
12625;SDS011;6378;42.684;23.372;2023-07-29T08:01:36;11.68;;;5.32;;
12625;SDS011;6378;42.684;23.372;2023-07-29T08:04:02;6.57;;;4.90;;
12625;SDS011;6378;42.684;23.372;2023-07-29T08:06:28;5.65;;;4.70;;
12625;SDS011;6378;42.684;23.372;2023-07-29T08:08:54;5.38;;;4.78;;
12625;SDS011;6378;42.684;23.372;2023-07-29T08:11:20;5.05;;;4.43;;
12625;SDS011;6378;42.684;23.372;2023-07-29T08:13:45;5.70;;;5.10;;
12625;SDS011;6378;42.684;23.372;2023-07-29T08:16:12;13.98;;;4.90;;
12625;SDS011;6378;42.684;23.372;2023-07-29T08:18:37;4.82;;;4.22;;
12625;SDS011;6378;42.684;23.372;2023-07-29T08:21:03;4.32;;;3.90;;
12625;SDS011;6378;42.684;23.372;2023-07-29T08:23:32;5.65;;;3.85;;
12625;SDS011;6378;42.684;23.372;2023-07-29T08:26:03;4.10;;;3.80;;
12625;SDS011;6378;42.684;23.372;2023-07-29T08:28:34;5.10;;;4.38;;
12625;SDS011;6378;42.684;23.372;2023-07-29T08:31:01;5.00;;;4.20;;
12625;SDS011;6378;42.684;23.372;2023-07-29T08:33:27;4.65;;;4.35;;
12625;SDS011;6378;42.684;23.372;2023-07-29T08:35:53;7.53;;;4.68;;
12625;SDS011;6378;42.684;23.372;2023-07-29T08:38:18;4.75;;;4.25;;
12625;SDS011;6378;42.684;23.372;2023-07-29T08:41:10;5.43;;;4.30;;
12625;SDS011;6378;42.684;23.372;2023-07-29T08:43:36;6.07;;;4.40;;
12625;SDS011;6378;42.684;23.372;2023-07-29T08:46:04;6.03;;;4.57;;
12625;SDS011;6378;42.684;23.372;2023-07-29T08:48:32;5.45;;;4.53;;
12625;SDS011;6378;42.684;23.372;2023-07-29T08:51:05;4.82;;;4.18;;
12625;SDS011;6378;42.684;23.372;2023-07-29T08:53:31;10.25;;;5.85;;
12625;SDS011;6378;42.684;23.372;2023-07-29T08:55:57;6.90;;;4.53;;
12625;SDS011;6378;42.684;23.372;2023-07-29T08:58:23;4.22;;;3.92;;
12625;SDS011;6378;42.684;23.372;2023-07-29T09:00:50;6.05;;;4.13;;
12625;SDS011;6378;42.684;23.372;2023-07-29T09:03:15;18.50;;;15.27;;
12625;SDS011;6378;42.684;23.372;2023-07-29T09:05:41;6.35;;;5.75;;
12625;SDS011;6378;42.684;23.372;2023-07-29T09:08:06;4.40;;;4.00;;
12625;SDS011;6378;42.684;23.372;2023-07-29T09:10:36;5.22;;;3.58;;
12625;SDS011;6378;42.684;23.372;2023-07-29T09:13:02;4.80;;;3.55;;
12625;SDS011;6378;42.684;23.372;2023-07-29T09:15:32;4.68;;;3.40;;
12625;SDS011;6378;42.684;23.372;2023-07-29T09:17:59;3.40;;;3.13;;
12625;SDS011;6378;42.684;23.372;2023-07-29T09:20:33;3.97;;;3.20;;
12625;SDS011;6378;42.684;23.372;2023-07-29T09:22:59;4.18;;;3.15;;
12625;SDS011;6378;42.684;23.372;2023-07-29T09:25:27;3.45;;;3.15;;
12625;SDS011;6378;42.684;23.372;2023-07-29T09:28:01;3.75;;;3.10;;
12625;SDS011;6378;42.684;23.372;2023-07-29T09:30:27;3.63;;;2.92;;
12625;SDS011;6378;42.684;23.372;2023-07-29T09:32:56;4.80;;;2.95;;
12625;SDS011;6378;42.684;23.372;2023-07-29T09:35:22;3.85;;;3.17;;
12625;SDS011;6378;42.684;23.372;2023-07-29T09:37:50;5.00;;;3.75;;
12625;SDS011;6378;42.684;23.372;2023-07-29T09:40:17;3.30;;;3.00;;
12625;SDS011;6378;42.684;23.372;2023-07-29T09:42:52;3.28;;;2.83;;
12625;SDS011;6378;42.684;23.372;2023-07-29T09:45:23;2.50;;;2.28;;
12625;SDS011;6378;42.684;23.372;2023-07-29T09:47:49;3.33;;;2.83;;
12625;SDS011;6378;42.684;23.372;2023-07-29T09:50:15;4.05;;;2.20;;
12625;SDS011;6378;42.684;23.372;2023-07-29T09:52:41;1.70;;;1.60;;
12625;SDS011;6378;42.684;23.372;2023-07-29T09:55:06;1.80;;;1.70;;
12625;SDS011;6378;42.684;23.372;2023-07-29T09:57:32;2.40;;;2.20;;
12625;SDS011;6378;42.684;23.372;2023-07-29T09:59:58;2.63;;;2.42;;
12625;SDS011;6378;42.684;23.372;2023-07-29T10:02:24;3.53;;;2.63;;
12625;SDS011;6378;42.684;23.372;2023-07-29T10:04:53;2.22;;;2.13;;
12625;SDS011;6378;42.684;23.372;2023-07-29T10:07:20;3.05;;;2.40;;
12625;SDS011;6378;42.684;23.372;2023-07-29T10:09:46;3.97;;;2.63;;
12625;SDS011;6378;42.684;23.372;2023-07-29T10:12:13;3.10;;;2.47;;
12625;SDS011;6378;42.684;23.372;2023-07-29T10:14:38;2.70;;;2.50;;
12625;SDS011;6378;42.684;23.372;2023-07-29T10:17:07;2.25;;;2.05;;
12625;SDS011;6378;42.684;23.372;2023-07-29T10:19:33;3.17;;;2.40;;
12625;SDS011;6378;42.684;23.372;2023-07-29T10:22:00;2.55;;;2.35;;
12625;SDS011;6378;42.684;23.372;2023-07-29T10:24:31;2.42;;;2.13;;
12625;SDS011;6378;42.684;23.372;2023-07-29T10:26:58;2.80;;;2.60;;
12625;SDS011;6378;42.684;23.372;2023-07-29T10:29:28;2.42;;;2.05;;
12625;SDS011;6378;42.684;23.372;2023-07-29T10:31:57;3.03;;;2.20;;
12625;SDS011;6378;42.684;23.372;2023-07-29T10:34:25;2.85;;;2.20;;
12625;SDS011;6378;42.684;23.372;2023-07-29T10:36:52;2.83;;;2.35;;
12625;SDS011;6378;42.684;23.372;2023-07-29T10:39:18;4.55;;;2.20;;
12625;SDS011;6378;42.684;23.372;2023-07-29T10:47:27;2.38;;;2.17;;
12625;SDS011;6378;42.684;23.372;2023-07-29T10:49:57;3.45;;;2.67;;
12625;SDS011;6378;42.684;23.372;2023-07-29T10:54:58;2.08;;;1.88;;
12625;SDS011;6378;42.684;23.372;2023-07-29T10:57:34;1.80;;;1.70;;
12625;SDS011;6378;42.684;23.372;2023-07-29T11:00:02;2.78;;;1.70;;
12625;SDS011;6378;42.684;23.372;2023-07-29T11:02:36;2.85;;;1.70;;
12625;SDS011;6378;42.684;23.372;2023-07-29T11:05:21;2.35;;;1.60;;
12625;SDS011;6378;42.684;23.372;2023-07-29T11:07:47;2.22;;;1.80;;
12625;SDS011;6378;42.684;23.372;2023-07-29T11:10:13;1.60;;;1.50;;
12625;SDS011;6378;42.684;23.372;2023-07-29T11:17:48;4.10;;;3.00;;
12625;SDS011;6378;42.684;23.372;2023-07-29T11:20:14;2.38;;;1.83;;
12625;SDS011;6378;42.684;23.372;2023-07-29T11:22:41;2.15;;;1.95;;
12625;SDS011;6378;42.684;23.372;2023-07-29T11:25:08;2.25;;;1.98;;
12625;SDS011;6378;42.684;23.372;2023-07-29T11:27:34;4.38;;;2.05;;
12625;SDS011;6378;42.684;23.372;2023-07-29T11:30:01;3.63;;;1.80;;
12625;SDS011;6378;42.684;23.372;2023-07-29T11:32:38;2.55;;;1.90;;
12625;SDS011;6378;42.684;23.372;2023-07-29T11:35:05;2.50;;;1.88;;
12625;SDS011;6378;42.684;23.372;2023-07-29T11:37:35;3.20;;;2.00;;
12625;SDS011;6378;42.684;23.372;2023-07-29T11:40:02;2.70;;;1.90;;
12625;SDS011;6378;42.684;23.372;2023-07-29T11:42:28;2.08;;;1.70;;
12625;SDS011;6378;42.684;23.372;2023-07-29T11:44:56;2.33;;;1.70;;
12625;SDS011;6378;42.684;23.372;2023-07-29T11:47:23;2.13;;;1.92;;
12625;SDS011;6378;42.684;23.372;2023-07-29T11:49:48;2.40;;;2.20;;
12625;SDS011;6378;42.684;23.372;2023-07-29T11:52:13;2.88;;;2.10;;
12625;SDS011;6378;42.684;23.372;2023-07-29T11:54:39;2.30;;;1.80;;
12625;SDS011;6378;42.684;23.372;2023-07-29T11:57:08;1.90;;;1.60;;
12625;SDS011;6378;42.684;23.372;2023-07-29T11:59:34;1.50;;;1.40;;
12625;SDS011;6378;42.684;23.372;2023-07-29T12:02:01;2.83;;;1.55;;
12625;SDS011;6378;42.684;23.372;2023-07-29T12:04:30;2.42;;;1.50;;
12625;SDS011;6378;42.684;23.372;2023-07-29T12:06:56;2.33;;;1.67;;
12625;SDS011;6378;42.684;23.372;2023-07-29T12:09:22;1.73;;;1.63;;
12625;SDS011;6378;42.684;23.372;2023-07-29T12:11:48;1.52;;;1.42;;
12625;SDS011;6378;42.684;23.372;2023-07-29T12:14:13;1.80;;;1.70;;
12625;SDS011;6378;42.684;23.372;2023-07-29T12:16:44;2.45;;;1.90;;
12625;SDS011;6378;42.684;23.372;2023-07-29T12:19:12;2.40;;;2.20;;
12625;SDS011;6378;42.684;23.372;2023-07-29T12:21:39;2.30;;;2.00;;
12625;SDS011;6378;42.684;23.372;2023-07-29T12:24:06;3.30;;;2.10;;
12625;SDS011;6378;42.684;23.372;2023-07-29T12:26:32;2.22;;;2.00;;
12625;SDS011;6378;42.684;23.372;2023-07-29T12:28:58;2.30;;;1.85;;
12625;SDS011;6378;42.684;23.372;2023-07-29T12:31:32;2.20;;;2.00;;
12625;SDS011;6378;42.684;23.372;2023-07-29T12:33:58;2.70;;;2.03;;
12625;SDS011;6378;42.684;23.372;2023-07-29T12:39:21;2.25;;;2.05;;
12625;SDS011;6378;42.684;23.372;2023-07-29T12:41:49;3.75;;;2.13;;
12625;SDS011;6378;42.684;23.372;2023-07-29T12:44:16;2.20;;;2.00;;
12625;SDS011;6378;42.684;23.372;2023-07-29T12:46:42;4.18;;;2.50;;
12625;SDS011;6378;42.684;23.372;2023-07-29T12:49:08;2.65;;;2.30;;
12625;SDS011;6378;42.684;23.372;2023-07-29T12:51:33;4.00;;;2.42;;
12625;SDS011;6378;42.684;23.372;2023-07-29T12:53:59;2.78;;;2.20;;
12625;SDS011;6378;42.684;23.372;2023-07-29T12:56:25;2.67;;;2.47;;
12625;SDS011;6378;42.684;23.372;2023-07-29T12:58:51;2.53;;;2.33;;
12625;SDS011;6378;42.684;23.372;2023-07-29T13:01:16;2.70;;;2.50;;
12625;SDS011;6378;42.684;23.372;2023-07-29T13:03:46;2.20;;;2.00;;
12625;SDS011;6378;42.684;23.372;2023-07-29T13:06:13;3.95;;;2.55;;
12625;SDS011;6378;42.684;23.372;2023-07-29T13:08:38;2.42;;;2.22;;
12625;SDS011;6378;42.684;23.372;2023-07-29T13:11:04;2.70;;;2.50;;
12625;SDS011;6378;42.684;23.372;2023-07-29T13:13:29;2.42;;;2.22;;
12625;SDS011;6378;42.684;23.372;2023-07-29T13:15:56;2.63;;;2.20;;
12625;SDS011;6378;42.684;23.372;2023-07-29T13:18:22;2.47;;;2.20;;
12625;SDS011;6378;42.684;23.372;2023-07-29T13:20:47;3.58;;;2.10;;
12625;SDS011;6378;42.684;23.372;2023-07-29T13:23:13;2.75;;;2.20;;
12625;SDS011;6378;42.684;23.372;2023-07-29T13:25:38;2.53;;;1.90;;
12625;SDS011;6378;42.684;23.372;2023-07-29T13:28:04;2.38;;;2.17;;
12625;SDS011;6378;42.684;23.372;2023-07-29T13:30:29;2.30;;;2.10;;
12625;SDS011;6378;42.684;23.372;2023-07-29T13:32:55;2.97;;;2.10;;
12625;SDS011;6378;42.684;23.372;2023-07-29T13:35:21;2.88;;;2.40;;
12625;SDS011;6378;42.684;23.372;2023-07-29T13:37:46;3.55;;;2.30;;
12625;SDS011;6378;42.684;23.372;2023-07-29T13:40:12;2.30;;;2.10;;
12625;SDS011;6378;42.684;23.372;2023-07-29T13:42:37;4.72;;;2.00;;
12625;SDS011;6378;42.684;23.372;2023-07-29T13:45:02;2.30;;;2.10;;
12625;SDS011;6378;42.684;23.372;2023-07-29T13:47:28;3.53;;;1.98;;
12625;SDS011;6378;42.684;23.372;2023-07-29T13:49:54;4.82;;;2.17;;
12625;SDS011;6378;42.684;23.372;2023-07-29T13:52:19;2.40;;;2.20;;
12625;SDS011;6378;42.684;23.372;2023-07-29T13:54:44;3.13;;;2.45;;
12625;SDS011;6378;42.684;23.372;2023-07-29T13:57:10;2.45;;;2.15;;
12625;SDS011;6378;42.684;23.372;2023-07-29T13:59:35;2.35;;;1.80;;
12625;SDS011;6378;42.684;23.372;2023-07-29T14:02:04;2.30;;;2.10;;
12625;SDS011;6378;42.684;23.372;2023-07-29T14:04:30;2.40;;;2.20;;
12625;SDS011;6378;42.684;23.372;2023-07-29T14:06:55;2.20;;;2.00;;
12625;SDS011;6378;42.684;23.372;2023-07-29T14:09:21;2.83;;;2.35;;
12625;SDS011;6378;42.684;23.372;2023-07-29T14:11:46;2.50;;;2.30;;
12625;SDS011;6378;42.684;23.372;2023-07-29T14:14:12;2.40;;;2.20;;
12625;SDS011;6378;42.684;23.372;2023-07-29T14:16:37;3.40;;;3.10;;
12625;SDS011;6378;42.684;23.372;2023-07-29T14:19:02;7.13;;;4.55;;
12625;SDS011;6378;42.684;23.372;2023-07-29T14:21:28;2.90;;;2.60;;
12625;SDS011;6378;42.684;23.372;2023-07-29T14:23:53;2.60;;;2.40;;
12625;SDS011;6378;42.684;23.372;2023-07-29T14:26:19;3.97;;;2.17;;
12625;SDS011;6378;42.684;23.372;2023-07-29T14:28:44;3.22;;;2.65;;
12625;SDS011;6378;42.684;23.372;2023-07-29T14:31:09;4.25;;;3.45;;
12625;SDS011;6378;42.684;23.372;2023-07-29T14:33:35;4.85;;;3.92;;
12625;SDS011;6378;42.684;23.372;2023-07-29T14:36:00;5.63;;;3.10;;
12625;SDS011;6378;42.684;23.372;2023-07-29T14:38:28;2.75;;;2.55;;
12625;SDS011;6378;42.684;23.372;2023-07-29T14:40:54;4.70;;;4.30;;
12625;SDS011;6378;42.684;23.372;2023-07-29T14:43:21;4.18;;;3.40;;
12625;SDS011;6378;42.684;23.372;2023-07-29T14:45:47;4.93;;;4.30;;
12625;SDS011;6378;42.684;23.372;2023-07-29T14:48:13;2.90;;;2.22;;
12625;SDS011;6378;42.684;23.372;2023-07-29T14:50:38;3.17;;;2.60;;
12625;SDS011;6378;42.684;23.372;2023-07-29T14:53:03;4.10;;;2.92;;
12625;SDS011;6378;42.684;23.372;2023-07-29T14:55:29;4.95;;;3.00;;
12625;SDS011;6378;42.684;23.372;2023-07-29T14:57:54;3.30;;;2.47;;
12625;SDS011;6378;42.684;23.372;2023-07-29T15:00:19;2.75;;;2.40;;
12625;SDS011;6378;42.684;23.372;2023-07-29T15:02:45;2.65;;;2.45;;
12625;SDS011;6378;42.684;23.372;2023-07-29T15:05:10;3.53;;;2.33;;
12625;SDS011;6378;42.684;23.372;2023-07-29T15:07:36;3.45;;;2.53;;